メインページ
METAR-TAF:

METAR-TAF

空港 :

アントファガスタ, チリ

セロ・モレノ国際空港

緯度: 23-26S, 経度: 070-26W, 海抜: 135m

現時点の気象観測

当レポートは27分前の06:00(UTC)に作成
の風 7kt
気温 16°C
湿度 82%
気圧 1015 hPa
視程10km以上
1,500メートル以下は雲なし、積乱雲なし

METAR: SCFA 140600Z 19007KT CAVOK 16/13 Q1015 NOSIG

時間: 03:27 (06:27 UTC)

予報

当レポートは2時間12分前の04:15(UTC)に作成
予報は14日の 06時(UTC)から 15日の 06時(UTC)まで有効
南/南西の風 5kt
視程10km以上
高度1500ftの雲は散在している
14日の 10時(UTC)から 14日の 12時(UTC)まで徐々に
北/北西の風 4kt
高度1200ftの千切れ雲あり
14日の 15時(UTC)から 14日の 17時(UTC)まで徐々に
南/南西の風 15kt
高度1800ftの雲はほとんどない
15日の 00時(UTC)から 15日の 02時(UTC)まで徐々に
高度1500ftの千切れ雲あり
15日の 04時(UTC)から 15日の 06時(UTC)まで徐々に
の風 6kt

TAF: SCFA 140415Z 1406/1506 20005KT 9999 SCT015 TN16/1406Z TX21/1418Z BECMG 1410/1412 33004KT BKN012 BECMG 1415/1417 20015KT FEW018 BECMG 1500/1502 BKN015 BECMG 1504/1506 19006KT

4,000以上の空港の気象観測と天気予報(METAR報とTAF報)

利用可能な観測所は地図上に黄色い丸と赤い丸で示す。

丸の上にカーソルを重ねると観測所名を参照できる。

次にクリックすると気象観測と天気予報を参照できる。

マップの切り替え:黒色「×」印の緑ボタンをクリックして拡大、「-」印の緑ボタンをクリックして縮小、緑色の三角印をクリックして隣りの地図に切り替え


METAR-TAF: